createdAt,value
2022-08-20T00:00:40.119Z,73.92
2022-08-20T00:03:30.988Z,73.92
2022-08-20T00:06:22.749Z,74.08
2022-08-20T00:09:13.599Z,74.14
2022-08-20T00:12:01.626Z,74.21
2022-08-20T00:15:10.534Z,74.41
2022-08-20T00:18:24.644Z,74.27
2022-08-20T00:21:33.111Z,74.36
2022-08-20T00:24:12.330Z,74.40
2022-08-20T00:27:05.179Z,74.63
2022-08-20T00:30:13.813Z,74.51
2022-08-20T00:33:23.247Z,74.41
2022-08-20T00:36:17.125Z,74.27
2022-08-20T00:39:05.130Z,74.44
2022-08-20T00:42:13.516Z,74.45
2022-08-20T00:45:04.922Z,74.65
2022-08-20T00:48:14.247Z,74.58
2022-08-20T00:51:05.272Z,74.55
2022-08-20T00:53:58.168Z,74.57
2022-08-20T00:56:57.733Z,74.96
2022-08-20T01:00:10.716Z,74.96
2022-08-20T01:03:00.131Z,74.86
2022-08-20T01:05:51.899Z,74.82
2022-08-20T01:08:40.609Z,75.09
2022-08-20T01:11:48.872Z,75.06
2022-08-20T01:14:58.943Z,75.14
2022-08-20T01:17:47.472Z,75.20
2022-08-20T01:20:46.885Z,74.91
2022-08-20T01:24:00.342Z,75.09
2022-08-20T01:26:46.380Z,75.10
2022-08-20T01:29:54.751Z,74.96
2022-08-20T01:33:01.958Z,75.01
2022-08-20T01:36:14.263Z,74.85
2022-08-20T01:39:23.854Z,74.94
2022-08-20T01:42:18.850Z,74.87
2022-08-20T01:45:07.363Z,74.79
2022-08-20T01:47:55.484Z,74.80
2022-08-20T01:50:49.677Z,74.70
2022-08-20T01:53:37.572Z,74.51
2022-08-20T01:56:27.475Z,74.45
2022-08-20T01:59:18.550Z,74.39
2022-08-20T02:02:27.827Z,74.40
2022-08-20T02:05:42.148Z,74.60
2022-08-20T02:08:30.605Z,74.59
2022-08-20T02:11:18.640Z,74.48
2022-08-20T02:14:16.094Z,74.55
2022-08-20T02:17:04.184Z,74.62
2022-08-20T02:19:55.862Z,74.51
2022-08-20T02:22:49.800Z,74.68
2022-08-20T02:25:29.506Z,74.56
2022-08-20T02:28:00.113Z,74.52
2022-08-20T02:30:42.592Z,74.80
2022-08-20T02:33:27.135Z,74.49
2022-08-20T02:35:58.025Z,74.67
2022-08-20T02:39:07.130Z,74.85
2022-08-20T02:41:46.867Z,74.80
2022-08-20T02:44:37.009Z,74.92
2022-08-20T02:47:17.273Z,75.28
2022-08-20T02:50:15.290Z,75.56
2022-08-20T02:53:03.795Z,75.95
2022-08-20T02:55:49.176Z,76.32
2022-08-20T02:58:47.479Z,76.82
2022-08-20T03:01:35.959Z,76.96
2022-08-20T03:04:44.231Z,77.18
2022-08-20T03:07:46.492Z,77.11
2022-08-20T03:10:46.322Z,77.22
2022-08-20T03:13:27.094Z,77.20
2022-08-20T03:16:33.712Z,76.95
2022-08-20T03:19:22.778Z,76.91
2022-08-20T03:22:11.148Z,76.81
2022-08-20T03:25:12.327Z,76.64
2022-08-20T03:28:14.693Z,76.50
2022-08-20T03:31:22.795Z,76.25
2022-08-20T03:34:13.741Z,76.21
2022-08-20T03:37:12.280Z,76.23
2022-08-20T03:40:22.589Z,76.05
2022-08-20T03:43:12.555Z,75.96
2022-08-20T03:46:04.159Z,75.98
2022-08-20T03:49:00.357Z,75.88
2022-08-20T03:51:58.452Z,75.93
2022-08-20T03:54:46.758Z,75.81
2022-08-20T03:57:28.669Z,75.80
2022-08-20T04:00:20.754Z,75.48
2022-08-20T04:03:12.706Z,75.71
2022-08-20T04:05:42.982Z,75.30
2022-08-20T04:08:53.301Z,75.41
2022-08-20T04:12:01.497Z,75.19
2022-08-20T04:14:52.516Z,75.33
2022-08-20T04:18:00.805Z,75.34
2022-08-20T04:21:09.255Z,75.22
2022-08-20T04:23:58.680Z,75.19
2022-08-20T04:27:08.216Z,75.27
2022-08-20T04:30:17.236Z,75.24
2022-08-20T04:33:33.335Z,75.24
2022-08-20T04:36:42.597Z,75.40
2022-08-20T04:40:05.384Z,75.48
2022-08-20T04:43:13.911Z,75.32
2022-08-20T04:46:07.618Z,75.49
2022-08-20T04:49:15.967Z,75.44
2022-08-20T04:52:04.240Z,75.55
2022-08-20T04:55:12.536Z,75.48
2022-08-20T04:58:04.779Z,75.62
2022-08-20T05:00:56.473Z,75.50
2022-08-20T05:04:03.891Z,75.60
2022-08-20T05:06:46.368Z,75.64
2022-08-20T05:09:56.605Z,75.65
2022-08-20T05:13:05.258Z,75.53
2022-08-20T05:16:04.555Z,75.64
2022-08-20T05:19:13.123Z,75.55
2022-08-20T05:22:01.158Z,75.60
2022-08-20T05:25:09.879Z,75.72
2022-08-20T05:28:00.168Z,75.83
2022-08-20T05:30:49.957Z,75.47
2022-08-20T05:33:40.620Z,75.73
2022-08-20T05:36:28.820Z,75.86
2022-08-20T05:39:17.620Z,75.80
2022-08-20T05:42:27.072Z,75.97
2022-08-20T05:45:45.938Z,75.87
2022-08-20T05:48:54.041Z,75.93
2022-08-20T05:52:17.946Z,75.99
2022-08-20T05:55:15.978Z,76.09
2022-08-20T05:58:07.992Z,75.97
2022-08-20T06:01:16.315Z,75.85
2022-08-20T06:04:24.441Z,75.90
2022-08-20T06:07:32.589Z,75.71
2022-08-20T06:10:25.654Z,75.78
2022-08-20T06:13:33.911Z,75.59
2022-08-20T06:16:57.394Z,75.52
2022-08-20T06:19:52.748Z,75.32
2022-08-20T06:22:35.359Z,74.91
2022-08-20T06:25:26.137Z,74.99
2022-08-20T06:28:18.192Z,74.75
2022-08-20T06:31:43.581Z,74.32
2022-08-20T06:34:50.217Z,74.11
2022-08-20T06:37:31.092Z,73.88
2022-08-20T06:40:05.578Z,73.67
2022-08-20T06:42:55.970Z,73.45
2022-08-20T06:45:58.694Z,73.49
2022-08-20T06:49:08.339Z,73.11
2022-08-20T06:52:16.824Z,72.88
2022-08-20T06:54:53.387Z,72.58
2022-08-20T06:57:26.878Z,72.60
2022-08-20T07:00:38.943Z,72.43
2022-08-20T07:03:28.881Z,72.39
2022-08-20T07:06:32.550Z,72.59
2022-08-20T07:13:41.515Z,72.52
2022-08-20T07:16:20.594Z,72.47
2022-08-20T07:18:51.170Z,72.49
2022-08-20T07:21:40.641Z,72.46
2022-08-20T07:24:33.280Z,72.25
2022-08-20T07:27:29.437Z,72.20
2022-08-20T07:30:58.349Z,72.06
2022-08-20T07:34:13.783Z,72.12
2022-08-20T07:37:17.477Z,71.91
2022-08-20T07:40:05.399Z,71.48
2022-08-20T07:42:42.903Z,71.35
2022-08-20T07:45:39.553Z,70.76
2022-08-20T07:49:10.088Z,70.22
2022-08-20T07:52:09.498Z,70.24
2022-08-20T07:55:36.967Z,70.27
2022-08-20T07:58:13.620Z,70.24
2022-08-20T08:00:48.537Z,69.69
2022-08-20T08:03:49.206Z,69.06
2022-08-20T08:07:20.847Z,67.40
2022-08-20T08:10:06.292Z,63.80
2022-08-20T08:12:48.216Z,60.31
2022-08-20T08:15:34.714Z,58.57
2022-08-20T08:18:17.164Z,55.71
2022-08-20T08:20:53.126Z,53.48
2022-08-20T08:23:48.196Z,52.13
2022-08-20T08:26:22.613Z,50.00
2022-08-20T08:29:04.796Z,48.26
2022-08-20T08:31:39.173Z,46.71
2022-08-20T08:34:22.611Z,44.79
2022-08-20T08:36:56.456Z,44.33
2022-08-20T08:39:34.941Z,43.72
2022-08-20T08:42:16.869Z,42.47
2022-08-20T08:44:45.411Z,41.71
2022-08-20T08:47:29.208Z,40.91
2022-08-20T08:50:24.815Z,39.18
2022-08-20T08:53:11.174Z,38.31
2022-08-20T08:55:47.370Z,37.63
2022-08-20T08:58:23.744Z,36.85
2022-08-20T09:00:56.573Z,36.63
2022-08-20T09:03:36.953Z,36.13
2022-08-20T09:06:14.952Z,36.27
2022-08-20T09:09:18.978Z,36.00
2022-08-20T09:12:47.549Z,35.19
2022-08-20T09:15:35.851Z,33.81
2022-08-20T09:18:19.587Z,32.68
2022-08-20T09:20:50.564Z,32.80
2022-08-20T09:23:23.017Z,32.52
2022-08-20T09:25:51.199Z,32.53
2022-08-20T09:28:24.594Z,32.21
2022-08-20T09:31:01.909Z,32.53
2022-08-20T09:33:32.811Z,32.39
2022-08-20T09:36:30.681Z,31.67
2022-08-20T09:39:06.813Z,31.38
2022-08-20T09:41:34.742Z,31.61
2022-08-20T09:44:02.708Z,31.25
2022-08-20T09:49:32.659Z,31.86
2022-08-20T09:55:35.182Z,30.55
2022-08-20T09:58:53.154Z,30.93
2022-08-20T10:01:22.150Z,30.77
2022-08-20T10:03:50.725Z,30.67
2022-08-20T10:06:21.380Z,31.47
2022-08-20T10:08:49.958Z,30.25
2022-08-20T10:11:20.530Z,29.35
2022-08-20T10:13:51.656Z,28.95
2022-08-20T10:16:19.545Z,28.75
2022-08-20T10:18:49.048Z,28.13
2022-08-20T10:21:21.271Z,28.33
2022-08-20T10:23:56.160Z,28.66
2022-08-20T10:26:23.904Z,28.72
2022-08-20T10:29:00.621Z,28.94
2022-08-20T10:31:28.776Z,29.87
2022-08-20T10:33:57.174Z,31.72
2022-08-20T10:36:25.048Z,33.28
2022-08-20T10:38:52.949Z,34.35
2022-08-20T10:41:20.948Z,33.39
2022-08-20T10:43:48.863Z,33.02
2022-08-20T10:46:16.815Z,33.80
2022-08-20T10:48:45.265Z,34.72
2022-08-20T10:51:13.476Z,35.37
2022-08-20T10:53:45.352Z,36.64
2022-08-20T10:56:15.607Z,37.82
2022-08-20T10:58:44.594Z,38.16
2022-08-20T11:01:12.418Z,37.79
2022-08-20T11:03:59.622Z,37.37
2022-08-20T11:06:46.543Z,37.66
2022-08-20T11:09:14.293Z,38.07
2022-08-20T11:11:45.770Z,38.26
2022-08-20T11:14:19.846Z,35.52
2022-08-20T11:16:58.571Z,33.92
2022-08-20T11:19:43.834Z,35.17
2022-08-20T11:22:54.919Z,36.46
2022-08-20T11:26:32.147Z,36.96
2022-08-20T11:29:14.117Z,36.91
2022-08-20T11:44:04.776Z,27.26
2022-08-20T11:47:58.408Z,27.80
2022-08-20T11:51:29.668Z,29.44
2022-08-20T11:54:17.597Z,30.08
2022-08-20T11:56:55.981Z,29.48
2022-08-20T11:59:44.636Z,27.65
2022-08-20T12:02:28.939Z,26.38
2022-08-20T12:05:55.151Z,24.89
2022-08-20T12:11:49.593Z,26.72
2022-08-20T12:15:37.365Z,27.90
2022-08-20T12:21:24.612Z,28.38
2022-08-20T12:24:16.071Z,27.03
2022-08-20T12:26:56.281Z,26.71
2022-08-20T12:30:00.962Z,25.57
2022-08-20T12:32:32.744Z,23.72
2022-08-20T12:35:00.885Z,24.51
2022-08-20T12:37:30.898Z,25.86
2022-08-20T12:40:06.203Z,27.08
2022-08-20T12:42:42.415Z,28.28
2022-08-20T12:45:10.992Z,28.74
2022-08-20T12:47:44.975Z,27.19
2022-08-20T12:50:31.251Z,25.23
2022-08-20T12:53:03.835Z,24.17
2022-08-20T12:55:36.139Z,23.22
2022-08-20T12:58:19.831Z,22.07
2022-08-20T13:00:59.254Z,21.73
2022-08-20T13:03:28.335Z,22.91
2022-08-20T13:06:09.585Z,22.38
2022-08-20T13:08:37.667Z,23.29
2022-08-20T13:11:05.669Z,24.41
2022-08-20T13:13:33.619Z,24.87
2022-08-20T13:16:08.010Z,25.79
2022-08-20T13:18:36.406Z,26.11
2022-08-20T13:21:10.093Z,26.38
2022-08-20T13:23:38.222Z,27.94
2022-08-20T13:26:06.790Z,29.20
2022-08-20T13:28:34.986Z,29.04
2022-08-20T13:31:03.235Z,29.60
2022-08-20T13:33:31.480Z,30.77
2022-08-20T13:36:00.064Z,31.35
2022-08-20T13:38:39.180Z,30.07
2022-08-20T13:41:07.267Z,29.57
2022-08-20T13:43:35.236Z,30.51
2022-08-20T13:46:05.062Z,31.77
2022-08-20T13:48:33.166Z,32.87
2022-08-20T13:51:01.283Z,34.47
2022-08-20T13:53:29.263Z,37.28
2022-08-20T13:56:03.628Z,36.33
2022-08-20T13:58:31.562Z,33.96
2022-08-20T14:00:59.317Z,31.94
2022-08-20T14:03:29.818Z,30.52
2022-08-20T14:06:00.424Z,28.96
2022-08-20T14:08:32.233Z,27.68
2022-08-20T14:11:00.249Z,27.30
2022-08-20T14:13:28.431Z,26.46
2022-08-20T14:15:56.466Z,26.10
2022-08-20T14:18:24.569Z,25.80
2022-08-20T14:20:52.368Z,25.56
2022-08-20T14:23:20.556Z,26.24
2022-08-20T14:25:49.979Z,27.61
2022-08-20T14:28:18.896Z,28.17
2022-08-20T14:30:53.220Z,28.77
2022-08-20T14:33:24.452Z,28.56
2022-08-20T14:35:52.493Z,28.89
2022-08-20T14:38:20.572Z,28.61
2022-08-20T14:40:54.360Z,28.43
2022-08-20T14:43:42.171Z,28.54
2022-08-20T14:46:16.677Z,29.08
2022-08-20T14:48:44.723Z,30.23
2022-08-20T14:51:24.881Z,30.78
2022-08-20T14:53:52.597Z,30.81
2022-08-20T14:56:20.451Z,31.26
2022-08-20T14:58:48.338Z,31.73
2022-08-20T15:01:19.298Z,32.16
2022-08-20T15:03:47.028Z,32.77
2022-08-20T15:06:21.996Z,33.04
2022-08-20T15:08:55.391Z,33.38
2022-08-20T15:11:34.452Z,34.12
2022-08-20T15:14:07.540Z,34.16
2022-08-20T15:16:42.313Z,34.01
2022-08-20T15:19:16.590Z,33.97
2022-08-20T15:21:49.410Z,34.56
2022-08-20T15:24:25.225Z,35.10
2022-08-20T15:26:59.570Z,35.28
2022-08-20T15:29:36.379Z,35.85
2022-08-20T15:32:08.154Z,36.36
2022-08-20T15:34:40.103Z,36.11
2022-08-20T15:37:18.375Z,36.30
2022-08-20T15:39:58.410Z,36.78
2022-08-20T15:42:29.605Z,37.61
2022-08-20T15:44:59.764Z,39.02
2022-08-20T15:47:34.119Z,39.92
2022-08-20T15:50:09.099Z,40.29
2022-08-20T15:52:43.128Z,40.15
2022-08-20T15:55:13.088Z,39.44
2022-08-20T15:57:55.876Z,39.71
2022-08-20T16:00:31.180Z,40.08
2022-08-20T16:03:16.150Z,40.40
2022-08-20T16:05:50.296Z,41.01
2022-08-20T16:08:31.928Z,41.05
2022-08-20T16:11:04.294Z,41.32
2022-08-20T16:13:38.952Z,41.38
2022-08-20T16:16:11.151Z,41.46
2022-08-20T16:18:41.570Z,41.52
2022-08-20T16:21:10.616Z,41.66
2022-08-20T16:23:39.631Z,41.89
2022-08-20T16:26:17.787Z,42.08
2022-08-20T16:28:49.449Z,42.54
2022-08-20T16:31:23.410Z,42.87
2022-08-20T16:33:59.781Z,43.48
2022-08-20T16:36:29.707Z,43.81
2022-08-20T16:39:03.187Z,44.15
2022-08-20T16:41:34.967Z,44.56
2022-08-20T16:44:06.565Z,44.88
2022-08-20T16:46:47.170Z,45.16
2022-08-20T16:49:15.459Z,45.49
2022-08-20T16:51:47.155Z,45.60
2022-08-20T16:54:29.568Z,45.76
2022-08-20T16:57:19.769Z,45.80
2022-08-20T17:00:05.609Z,46.42
2022-08-20T17:02:36.126Z,46.64
2022-08-20T17:05:06.794Z,46.90
2022-08-20T17:08:03.515Z,47.75
2022-08-20T17:10:54.045Z,48.44
2022-08-20T17:13:24.014Z,49.19
2022-08-20T17:16:01.765Z,49.78
2022-08-20T17:18:46.232Z,50.29
2022-08-20T17:21:16.238Z,50.82
2022-08-20T17:24:22.821Z,51.52
2022-08-20T17:26:58.308Z,52.33
2022-08-20T17:29:30.787Z,53.21
2022-08-20T17:32:08.546Z,53.48
2022-08-20T17:35:00.329Z,53.79
2022-08-20T17:37:53.978Z,54.19
2022-08-20T17:40:39.472Z,54.55
2022-08-20T17:43:57.373Z,54.86
2022-08-20T17:46:43.522Z,55.57
2022-08-20T17:49:15.125Z,56.14
2022-08-20T17:51:48.088Z,56.59
2022-08-20T17:54:22.128Z,56.97
2022-08-20T17:57:17.549Z,57.38
2022-08-20T18:00:22.961Z,57.51
2022-08-20T18:02:57.651Z,57.67
2022-08-20T18:05:27.402Z,57.82
2022-08-20T18:08:07.863Z,58.01
2022-08-20T18:11:41.636Z,58.27
2022-08-20T18:14:25.830Z,58.92
2022-08-20T18:17:04.913Z,59.29
2022-08-20T18:20:02.772Z,58.84
2022-08-20T18:22:48.621Z,58.85
2022-08-20T18:25:27.961Z,58.59
2022-08-20T18:28:18.723Z,58.42
2022-08-20T18:31:00.263Z,58.84
2022-08-20T18:33:34.988Z,58.92
2022-08-20T18:39:43.613Z,59.42
2022-08-20T18:42:43.350Z,59.29
2022-08-20T18:45:15.452Z,59.33
2022-08-20T18:48:05.077Z,59.43
2022-08-20T18:50:56.386Z,59.40
2022-08-20T18:53:29.207Z,59.65
2022-08-20T18:56:02.690Z,59.58
2022-08-20T18:58:32.161Z,59.82
2022-08-20T19:01:24.758Z,59.80
2022-08-20T19:04:24.761Z,59.92
2022-08-20T19:07:15.206Z,60.01
2022-08-20T19:10:08.881Z,60.23
2022-08-20T19:13:26.908Z,60.55
2022-08-20T19:16:05.979Z,60.83
2022-08-20T19:19:03.014Z,61.14
2022-08-20T19:21:42.227Z,61.47
2022-08-20T19:24:32.937Z,61.79
2022-08-20T19:27:02.464Z,61.94
2022-08-20T19:29:31.297Z,62.13
2022-08-20T19:32:24.670Z,62.22
2022-08-20T19:35:07.355Z,62.45
2022-08-20T19:37:50.902Z,62.73
2022-08-20T19:40:26.093Z,62.84
2022-08-20T19:43:29.824Z,63.35
2022-08-20T19:46:01.403Z,63.27
2022-08-20T19:48:46.675Z,63.49
2022-08-20T19:51:25.924Z,63.56
2022-08-20T19:54:07.397Z,63.84
2022-08-20T19:56:57.390Z,64.25
2022-08-20T19:59:31.122Z,64.26
2022-08-20T20:02:20.069Z,64.43
2022-08-20T20:04:54.853Z,64.58
2022-08-20T20:07:28.764Z,64.55
2022-08-20T20:10:10.631Z,64.74
2022-08-20T20:12:39.010Z,64.80
2022-08-20T20:15:30.950Z,64.90
2022-08-20T20:18:19.727Z,65.07
2022-08-20T20:21:12.112Z,65.13
2022-08-20T20:23:52.695Z,65.31
2022-08-20T20:26:41.128Z,65.17
2022-08-20T20:29:35.114Z,65.34
2022-08-20T20:32:24.300Z,65.28
2022-08-20T20:35:23.899Z,65.53
2022-08-20T20:38:05.378Z,65.68
2022-08-20T20:40:46.787Z,65.50
2022-08-20T20:43:48.619Z,65.52
2022-08-20T20:46:32.115Z,65.82
2022-08-20T20:49:25.509Z,65.91
2022-08-20T20:52:06.380Z,65.76
2022-08-20T20:55:10.745Z,66.01
2022-08-20T20:58:13.217Z,65.97
2022-08-20T21:01:11.592Z,65.85
2022-08-20T21:03:40.659Z,66.05
2022-08-20T21:06:26.643Z,66.18
2022-08-20T21:09:29.807Z,66.19
2022-08-20T21:12:10.135Z,66.45
2022-08-20T21:15:35.072Z,66.37
2022-08-20T21:18:19.455Z,66.33
2022-08-20T21:21:12.637Z,66.39
2022-08-20T21:24:02.191Z,66.45
2022-08-20T21:26:52.711Z,66.46
2022-08-20T21:30:20.126Z,66.41
2022-08-20T21:33:07.691Z,66.70
2022-08-20T21:35:40.543Z,66.62
2022-08-20T21:38:17.001Z,66.46
2022-08-20T21:41:29.986Z,66.54
2022-08-20T21:44:22.107Z,66.41
2022-08-20T21:47:15.467Z,66.16
2022-08-20T21:49:49.038Z,66.12
2022-08-20T21:53:00.059Z,66.02
2022-08-20T21:55:41.103Z,65.86
2022-08-20T21:58:19.444Z,65.96
2022-08-20T22:01:31.963Z,65.95
2022-08-20T22:04:20.557Z,65.78
2022-08-20T22:07:08.943Z,65.59
2022-08-20T22:09:38.493Z,65.49
2022-08-20T22:12:20.615Z,65.39
2022-08-20T22:14:51.308Z,65.29
2022-08-20T22:17:42.456Z,65.16
2022-08-20T22:20:19.239Z,65.19
2022-08-20T22:23:16.054Z,65.01
2022-08-20T22:26:14.735Z,64.95
2022-08-20T22:29:02.188Z,65.06
2022-08-20T22:31:53.683Z,65.28
2022-08-20T22:34:45.483Z,65.24
2022-08-20T22:37:44.776Z,65.31
2022-08-20T22:40:41.967Z,65.49
2022-08-20T22:43:57.432Z,65.63
2022-08-20T22:47:07.492Z,65.57
2022-08-20T22:50:15.381Z,65.45
2022-08-20T22:54:05.237Z,65.39
2022-08-20T22:56:56.527Z,65.44
2022-08-20T23:00:25.306Z,65.38
2022-08-20T23:07:10.856Z,65.13
2022-08-20T23:10:08.966Z,64.94
2022-08-20T23:13:00.650Z,65.01
2022-08-20T23:15:50.940Z,65.29
2022-08-20T23:19:01.412Z,65.19
2022-08-20T23:21:50.211Z,65.18
2022-08-20T23:28:39.877Z,64.85
2022-08-20T23:31:46.269Z,64.88
2022-08-20T23:34:35.700Z,64.81
2022-08-20T23:37:46.639Z,64.59
2022-08-20T23:40:28.127Z,64.43
2022-08-20T23:43:36.923Z,64.54
2022-08-20T23:46:54.579Z,64.24
2022-08-20T23:49:51.639Z,64.11
2022-08-20T23:52:39.837Z,64.04
2022-08-20T23:55:55.802Z,63.95
2022-08-20T23:59:04.767Z,63.94
